sensor_id;sensor_type;location;lat;lon;timestamp;P1;durP1;ratioP1;P2;durP2;ratioP2
24335;SDS011;33098;52.400;16.880;2022-07-30T00:01:35;3.90;;;1.60;;
24335;SDS011;33098;52.400;16.880;2022-07-30T00:04:02;4.50;;;1.70;;
24335;SDS011;33098;52.400;16.880;2022-07-30T00:06:29;3.50;;;1.40;;
24335;SDS011;33098;52.400;16.880;2022-07-30T00:08:55;4.00;;;1.20;;
24335;SDS011;33098;52.400;16.880;2022-07-30T00:11:22;4.40;;;1.60;;
24335;SDS011;33098;52.400;16.880;2022-07-30T00:13:49;2.70;;;1.50;;
24335;SDS011;33098;52.400;16.880;2022-07-30T00:16:16;4.40;;;1.60;;
24335;SDS011;33098;52.400;16.880;2022-07-30T00:18:43;3.60;;;1.30;;
24335;SDS011;33098;52.400;16.880;2022-07-30T00:21:09;4.60;;;1.80;;
24335;SDS011;33098;52.400;16.880;2022-07-30T00:23:36;2.10;;;1.40;;
24335;SDS011;33098;52.400;16.880;2022-07-30T00:26:02;2.80;;;1.50;;
24335;SDS011;33098;52.400;16.880;2022-07-30T00:28:29;5.20;;;1.60;;
24335;SDS011;33098;52.400;16.880;2022-07-30T00:30:55;2.70;;;1.50;;
24335;SDS011;33098;52.400;16.880;2022-07-30T00:33:22;3.50;;;1.60;;
24335;SDS011;33098;52.400;16.880;2022-07-30T00:35:51;3.80;;;1.40;;
24335;SDS011;33098;52.400;16.880;2022-07-30T00:38:17;4.30;;;1.40;;
24335;SDS011;33098;52.400;16.880;2022-07-30T00:40:47;3.00;;;1.60;;
24335;SDS011;33098;52.400;16.880;2022-07-30T00:43:17;2.80;;;1.30;;
24335;SDS011;33098;52.400;16.880;2022-07-30T00:45:43;1.50;;;1.40;;
24335;SDS011;33098;52.400;16.880;2022-07-30T00:48:14;5.10;;;1.40;;
24335;SDS011;33098;52.400;16.880;2022-07-30T00:50:44;5.80;;;1.60;;
24335;SDS011;33098;52.400;16.880;2022-07-30T00:53:11;4.50;;;1.60;;
24335;SDS011;33098;52.400;16.880;2022-07-30T00:55:38;8.80;;;1.80;;
24335;SDS011;33098;52.400;16.880;2022-07-30T00:58:05;2.90;;;1.60;;
24335;SDS011;33098;52.400;16.880;2022-07-30T01:00:31;4.60;;;1.70;;
24335;SDS011;33098;52.400;16.880;2022-07-30T01:02:58;4.30;;;1.80;;
24335;SDS011;33098;52.400;16.880;2022-07-30T01:05:25;3.60;;;1.60;;
24335;SDS011;33098;52.400;16.880;2022-07-30T01:07:51;3.40;;;1.70;;
24335;SDS011;33098;52.400;16.880;2022-07-30T01:10:18;3.60;;;1.70;;
24335;SDS011;33098;52.400;16.880;2022-07-30T01:12:44;2.70;;;1.60;;
24335;SDS011;33098;52.400;16.880;2022-07-30T01:15:12;5.30;;;1.70;;
24335;SDS011;33098;52.400;16.880;2022-07-30T01:17:39;4.70;;;1.80;;
24335;SDS011;33098;52.400;16.880;2022-07-30T01:20:14;3.40;;;1.80;;
24335;SDS011;33098;52.400;16.880;2022-07-30T01:28:22;5.50;;;1.90;;
24335;SDS011;33098;52.400;16.880;2022-07-30T01:30:53;4.70;;;1.60;;
24335;SDS011;33098;52.400;16.880;2022-07-30T01:33:22;8.30;;;2.10;;
24335;SDS011;33098;52.400;16.880;2022-07-30T01:35:51;3.50;;;1.60;;
24335;SDS011;33098;52.400;16.880;2022-07-30T01:38:19;5.20;;;1.50;;
24335;SDS011;33098;52.400;16.880;2022-07-30T01:43:18;3.80;;;1.70;;
24335;SDS011;33098;52.400;16.880;2022-07-30T01:45:46;3.80;;;1.80;;
24335;SDS011;33098;52.400;16.880;2022-07-30T01:48:16;5.00;;;1.80;;
24335;SDS011;33098;52.400;16.880;2022-07-30T01:50:45;3.10;;;1.60;;
24335;SDS011;33098;52.400;16.880;2022-07-30T01:53:18;6.00;;;1.60;;
24335;SDS011;33098;52.400;16.880;2022-07-30T01:55:47;5.90;;;1.90;;
24335;SDS011;33098;52.400;16.880;2022-07-30T01:58:15;9.40;;;2.10;;
24335;SDS011;33098;52.400;16.880;2022-07-30T02:00:46;8.80;;;1.80;;
24335;SDS011;33098;52.400;16.880;2022-07-30T02:03:14;4.10;;;1.80;;
24335;SDS011;33098;52.400;16.880;2022-07-30T02:05:44;4.30;;;1.60;;
24335;SDS011;33098;52.400;16.880;2022-07-30T02:08:20;4.70;;;1.50;;
24335;SDS011;33098;52.400;16.880;2022-07-30T02:10:57;7.30;;;1.80;;
24335;SDS011;33098;52.400;16.880;2022-07-30T02:13:30;3.40;;;1.50;;
24335;SDS011;33098;52.400;16.880;2022-07-30T02:16:05;4.60;;;1.60;;
24335;SDS011;33098;52.400;16.880;2022-07-30T02:21:08;2.60;;;1.70;;
24335;SDS011;33098;52.400;16.880;2022-07-30T02:23:38;4.90;;;1.80;;
24335;SDS011;33098;52.400;16.880;2022-07-30T02:26:07;5.00;;;1.80;;
24335;SDS011;33098;52.400;16.880;2022-07-30T02:28:38;4.60;;;1.80;;
24335;SDS011;33098;52.400;16.880;2022-07-30T02:31:08;2.10;;;1.60;;
24335;SDS011;33098;52.400;16.880;2022-07-30T02:33:39;6.00;;;1.90;;
24335;SDS011;33098;52.400;16.880;2022-07-30T02:36:08;4.50;;;1.90;;
24335;SDS011;33098;52.400;16.880;2022-07-30T02:38:36;4.10;;;1.80;;
24335;SDS011;33098;52.400;16.880;2022-07-30T02:41:06;2.50;;;1.60;;
24335;SDS011;33098;52.400;16.880;2022-07-30T02:43:35;4.70;;;2.00;;
24335;SDS011;33098;52.400;16.880;2022-07-30T02:46:06;4.80;;;1.80;;
24335;SDS011;33098;52.400;16.880;2022-07-30T02:48:57;4.70;;;1.70;;
24335;SDS011;33098;52.400;16.880;2022-07-30T02:51:24;6.10;;;1.70;;
24335;SDS011;33098;52.400;16.880;2022-07-30T02:53:53;3.20;;;1.60;;
24335;SDS011;33098;52.400;16.880;2022-07-30T02:56:22;4.70;;;1.70;;
24335;SDS011;33098;52.400;16.880;2022-07-30T02:58:50;3.70;;;1.80;;
24335;SDS011;33098;52.400;16.880;2022-07-30T03:01:19;4.80;;;1.60;;
24335;SDS011;33098;52.400;16.880;2022-07-30T03:03:48;3.60;;;1.80;;
24335;SDS011;33098;52.400;16.880;2022-07-30T03:06:15;3.20;;;1.70;;
24335;SDS011;33098;52.400;16.880;2022-07-30T03:08:43;7.00;;;1.90;;
24335;SDS011;33098;52.400;16.880;2022-07-30T03:11:11;3.50;;;2.00;;
24335;SDS011;33098;52.400;16.880;2022-07-30T03:13:39;2.40;;;1.70;;
24335;SDS011;33098;52.400;16.880;2022-07-30T03:16:06;3.90;;;1.40;;
24335;SDS011;33098;52.400;16.880;2022-07-30T03:18:40;4.30;;;1.80;;
24335;SDS011;33098;52.400;16.880;2022-07-30T03:21:09;5.40;;;1.80;;
24335;SDS011;33098;52.400;16.880;2022-07-30T03:23:38;4.20;;;1.70;;
24335;SDS011;33098;52.400;16.880;2022-07-30T03:26:08;5.40;;;1.80;;
24335;SDS011;33098;52.400;16.880;2022-07-30T03:28:36;4.50;;;1.80;;
24335;SDS011;33098;52.400;16.880;2022-07-30T03:31:05;3.50;;;1.70;;
24335;SDS011;33098;52.400;16.880;2022-07-30T03:33:34;3.00;;;1.70;;
24335;SDS011;33098;52.400;16.880;2022-07-30T03:36:02;3.30;;;1.50;;
24335;SDS011;33098;52.400;16.880;2022-07-30T03:38:30;4.20;;;1.60;;
24335;SDS011;33098;52.400;16.880;2022-07-30T03:40:58;4.90;;;1.60;;
24335;SDS011;33098;52.400;16.880;2022-07-30T03:43:25;2.20;;;1.50;;
24335;SDS011;33098;52.400;16.880;2022-07-30T03:45:52;2.70;;;1.80;;
24335;SDS011;33098;52.400;16.880;2022-07-30T03:48:21;3.20;;;1.70;;
24335;SDS011;33098;52.400;16.880;2022-07-30T03:50:48;3.80;;;1.50;;
24335;SDS011;33098;52.400;16.880;2022-07-30T03:53:16;4.10;;;1.90;;
24335;SDS011;33098;52.400;16.880;2022-07-30T03:56:03;2.80;;;1.60;;
24335;SDS011;33098;52.400;16.880;2022-07-30T03:58:48;6.30;;;1.80;;
24335;SDS011;33098;52.400;16.880;2022-07-30T04:01:15;3.20;;;1.60;;
24335;SDS011;33098;52.400;16.880;2022-07-30T04:03:42;4.20;;;1.80;;
24335;SDS011;33098;52.400;16.880;2022-07-30T04:06:09;2.70;;;1.30;;
24335;SDS011;33098;52.400;16.880;2022-07-30T04:08:35;3.50;;;1.80;;
24335;SDS011;33098;52.400;16.880;2022-07-30T04:11:02;3.00;;;1.80;;
24335;SDS011;33098;52.400;16.880;2022-07-30T04:13:48;4.00;;;1.80;;
24335;SDS011;33098;52.400;16.880;2022-07-30T04:19:20;2.00;;;1.50;;
24335;SDS011;33098;52.400;16.880;2022-07-30T04:21:52;5.00;;;1.80;;
24335;SDS011;33098;52.400;16.880;2022-07-30T04:24:21;2.70;;;2.10;;
24335;SDS011;33098;52.400;16.880;2022-07-30T04:26:50;4.00;;;1.70;;
24335;SDS011;33098;52.400;16.880;2022-07-30T04:29:19;2.70;;;1.50;;
24335;SDS011;33098;52.400;16.880;2022-07-30T04:31:45;3.70;;;1.70;;
24335;SDS011;33098;52.400;16.880;2022-07-30T04:34:31;4.10;;;1.60;;
24335;SDS011;33098;52.400;16.880;2022-07-30T04:36:58;2.80;;;1.70;;
24335;SDS011;33098;52.400;16.880;2022-07-30T04:39:27;3.60;;;1.60;;
24335;SDS011;33098;52.400;16.880;2022-07-30T04:41:54;3.10;;;1.70;;
24335;SDS011;33098;52.400;16.880;2022-07-30T04:44:30;3.70;;;1.60;;
24335;SDS011;33098;52.400;16.880;2022-07-30T04:47:23;3.00;;;1.60;;
24335;SDS011;33098;52.400;16.880;2022-07-30T04:50:32;6.40;;;1.80;;
24335;SDS011;33098;52.400;16.880;2022-07-30T04:53:05;4.40;;;1.80;;
24335;SDS011;33098;52.400;16.880;2022-07-30T04:55:33;2.60;;;1.50;;
24335;SDS011;33098;52.400;16.880;2022-07-30T04:58:03;7.10;;;1.90;;
24335;SDS011;33098;52.400;16.880;2022-07-30T05:00:35;3.90;;;1.70;;
24335;SDS011;33098;52.400;16.880;2022-07-30T05:03:04;2.80;;;1.50;;
24335;SDS011;33098;52.400;16.880;2022-07-30T05:05:33;4.90;;;1.90;;
24335;SDS011;33098;52.400;16.880;2022-07-30T05:10:30;2.50;;;1.50;;
24335;SDS011;33098;52.400;16.880;2022-07-30T05:12:57;4.00;;;1.60;;
24335;SDS011;33098;52.400;16.880;2022-07-30T05:15:24;3.50;;;1.60;;
24335;SDS011;33098;52.400;16.880;2022-07-30T05:17:51;3.20;;;1.70;;
24335;SDS011;33098;52.400;16.880;2022-07-30T05:20:18;2.20;;;1.50;;
24335;SDS011;33098;52.400;16.880;2022-07-30T05:23:04;4.20;;;1.80;;
24335;SDS011;33098;52.400;16.880;2022-07-30T05:25:31;3.40;;;1.70;;
24335;SDS011;33098;52.400;16.880;2022-07-30T05:28:07;3.70;;;1.60;;
24335;SDS011;33098;52.400;16.880;2022-07-30T05:30:35;3.30;;;1.50;;
24335;SDS011;33098;52.400;16.880;2022-07-30T05:33:02;5.10;;;1.80;;
24335;SDS011;33098;52.400;16.880;2022-07-30T05:35:29;4.40;;;2.10;;
24335;SDS011;33098;52.400;16.880;2022-07-30T05:37:55;4.40;;;1.70;;
24335;SDS011;33098;52.400;16.880;2022-07-30T05:40:22;4.40;;;1.80;;
24335;SDS011;33098;52.400;16.880;2022-07-30T05:43:27;2.80;;;1.60;;
24335;SDS011;33098;52.400;16.880;2022-07-30T05:45:54;4.90;;;1.70;;
24335;SDS011;33098;52.400;16.880;2022-07-30T05:48:20;4.00;;;1.70;;
24335;SDS011;33098;52.400;16.880;2022-07-30T05:50:47;3.10;;;1.50;;
24335;SDS011;33098;52.400;16.880;2022-07-30T05:53:13;4.70;;;1.70;;
24335;SDS011;33098;52.400;16.880;2022-07-30T05:56:09;3.30;;;1.60;;
24335;SDS011;33098;52.400;16.880;2022-07-30T05:58:59;1.80;;;1.40;;
24335;SDS011;33098;52.400;16.880;2022-07-30T06:01:44;2.90;;;1.80;;
24335;SDS011;33098;52.400;16.880;2022-07-30T06:04:16;1.90;;;1.40;;
24335;SDS011;33098;52.400;16.880;2022-07-30T06:06:47;1.50;;;1.40;;
24335;SDS011;33098;52.400;16.880;2022-07-30T06:09:14;4.30;;;1.70;;
24335;SDS011;33098;52.400;16.880;2022-07-30T06:11:40;3.50;;;1.70;;
24335;SDS011;33098;52.400;16.880;2022-07-30T06:14:07;3.90;;;1.70;;
24335;SDS011;33098;52.400;16.880;2022-07-30T06:16:34;2.00;;;1.50;;
24335;SDS011;33098;52.400;16.880;2022-07-30T06:19:00;2.90;;;1.80;;
24335;SDS011;33098;52.400;16.880;2022-07-30T06:21:37;5.00;;;2.20;;
24335;SDS011;33098;52.400;16.880;2022-07-30T06:24:08;2.60;;;1.60;;
24335;SDS011;33098;52.400;16.880;2022-07-30T06:26:50;6.60;;;1.50;;
24335;SDS011;33098;52.400;16.880;2022-07-30T06:29:17;2.90;;;1.60;;
24335;SDS011;33098;52.400;16.880;2022-07-30T06:31:47;4.10;;;1.60;;
24335;SDS011;33098;52.400;16.880;2022-07-30T06:34:14;2.90;;;1.50;;
24335;SDS011;33098;52.400;16.880;2022-07-30T06:36:42;1.80;;;1.50;;
24335;SDS011;33098;52.400;16.880;2022-07-30T06:39:15;2.40;;;1.70;;
24335;SDS011;33098;52.400;16.880;2022-07-30T06:41:56;3.80;;;1.80;;
24335;SDS011;33098;52.400;16.880;2022-07-30T06:44:26;3.30;;;1.70;;
24335;SDS011;33098;52.400;16.880;2022-07-30T06:47:21;2.40;;;1.70;;
24335;SDS011;33098;52.400;16.880;2022-07-30T06:49:54;1.80;;;1.40;;
24335;SDS011;33098;52.400;16.880;2022-07-30T06:52:22;4.10;;;1.70;;
24335;SDS011;33098;52.400;16.880;2022-07-30T06:54:50;6.00;;;1.80;;
24335;SDS011;33098;52.400;16.880;2022-07-30T06:57:26;5.40;;;1.90;;
24335;SDS011;33098;52.400;16.880;2022-07-30T06:59:52;4.60;;;1.80;;
24335;SDS011;33098;52.400;16.880;2022-07-30T07:02:25;2.50;;;1.80;;
24335;SDS011;33098;52.400;16.880;2022-07-30T07:05:12;3.10;;;2.00;;
24335;SDS011;33098;52.400;16.880;2022-07-30T07:07:42;4.80;;;1.90;;
24335;SDS011;33098;52.400;16.880;2022-07-30T07:10:09;9.30;;;2.30;;
24335;SDS011;33098;52.400;16.880;2022-07-30T07:12:45;4.30;;;1.50;;
24335;SDS011;33098;52.400;16.880;2022-07-30T07:15:13;6.80;;;1.90;;
24335;SDS011;33098;52.400;16.880;2022-07-30T07:17:40;6.40;;;1.80;;
24335;SDS011;33098;52.400;16.880;2022-07-30T07:20:42;3.00;;;1.80;;
24335;SDS011;33098;52.400;16.880;2022-07-30T07:23:11;3.60;;;1.70;;
24335;SDS011;33098;52.400;16.880;2022-07-30T07:25:39;3.40;;;2.10;;
24335;SDS011;33098;52.400;16.880;2022-07-30T07:28:06;5.50;;;1.90;;
24335;SDS011;33098;52.400;16.880;2022-07-30T07:30:33;2.70;;;1.80;;
24335;SDS011;33098;52.400;16.880;2022-07-30T07:33:01;3.40;;;1.80;;
24335;SDS011;33098;52.400;16.880;2022-07-30T07:35:28;2.20;;;1.50;;
24335;SDS011;33098;52.400;16.880;2022-07-30T07:37:58;3.50;;;1.80;;
24335;SDS011;33098;52.400;16.880;2022-07-30T07:40:25;3.60;;;2.00;;
24335;SDS011;33098;52.400;16.880;2022-07-30T07:42:53;4.00;;;1.70;;
24335;SDS011;33098;52.400;16.880;2022-07-30T07:45:19;4.10;;;1.70;;
24335;SDS011;33098;52.400;16.880;2022-07-30T07:47:51;5.20;;;1.90;;
24335;SDS011;33098;52.400;16.880;2022-07-30T07:50:29;4.60;;;1.70;;
24335;SDS011;33098;52.400;16.880;2022-07-30T07:52:56;3.70;;;2.00;;
24335;SDS011;33098;52.400;16.880;2022-07-30T07:55:23;3.40;;;1.90;;
24335;SDS011;33098;52.400;16.880;2022-07-30T07:57:51;3.80;;;1.70;;
24335;SDS011;33098;52.400;16.880;2022-07-30T08:00:18;5.20;;;1.70;;
24335;SDS011;33098;52.400;16.880;2022-07-30T08:02:47;3.00;;;1.90;;
24335;SDS011;33098;52.400;16.880;2022-07-30T08:05:17;3.40;;;1.90;;
24335;SDS011;33098;52.400;16.880;2022-07-30T08:08:00;2.80;;;1.80;;
24335;SDS011;33098;52.400;16.880;2022-07-30T08:10:46;5.00;;;1.90;;
24335;SDS011;33098;52.400;16.880;2022-07-30T08:13:19;4.00;;;1.80;;
24335;SDS011;33098;52.400;16.880;2022-07-30T08:16:14;9.10;;;1.70;;
24335;SDS011;33098;52.400;16.880;2022-07-30T08:19:03;6.10;;;1.80;;
24335;SDS011;33098;52.400;16.880;2022-07-30T08:21:37;5.10;;;1.80;;
24335;SDS011;33098;52.400;16.880;2022-07-30T08:24:04;4.80;;;2.00;;
24335;SDS011;33098;52.400;16.880;2022-07-30T08:26:31;4.30;;;1.70;;
24335;SDS011;33098;52.400;16.880;2022-07-30T08:28:57;3.20;;;1.80;;
24335;SDS011;33098;52.400;16.880;2022-07-30T08:31:24;3.80;;;1.70;;
24335;SDS011;33098;52.400;16.880;2022-07-30T08:33:50;4.60;;;1.90;;
24335;SDS011;33098;52.400;16.880;2022-07-30T08:36:17;5.40;;;2.00;;
24335;SDS011;33098;52.400;16.880;2022-07-30T08:38:44;4.90;;;2.00;;
24335;SDS011;33098;52.400;16.880;2022-07-30T08:41:11;2.60;;;1.80;;
24335;SDS011;33098;52.400;16.880;2022-07-30T08:43:38;4.40;;;1.70;;
24335;SDS011;33098;52.400;16.880;2022-07-30T08:46:08;4.10;;;2.10;;
24335;SDS011;33098;52.400;16.880;2022-07-30T08:48:55;4.10;;;1.80;;
24335;SDS011;33098;52.400;16.880;2022-07-30T08:51:26;3.50;;;1.80;;
24335;SDS011;33098;52.400;16.880;2022-07-30T08:54:13;3.70;;;1.80;;
24335;SDS011;33098;52.400;16.880;2022-07-30T08:56:40;3.20;;;1.90;;
24335;SDS011;33098;52.400;16.880;2022-07-30T08:59:07;3.70;;;2.20;;
24335;SDS011;33098;52.400;16.880;2022-07-30T09:01:34;4.30;;;2.20;;
24335;SDS011;33098;52.400;16.880;2022-07-30T09:04:01;3.80;;;2.60;;
24335;SDS011;33098;52.400;16.880;2022-07-30T09:06:28;3.30;;;2.30;;
24335;SDS011;33098;52.400;16.880;2022-07-30T09:08:55;2.90;;;2.40;;
24335;SDS011;33098;52.400;16.880;2022-07-30T09:11:21;5.00;;;2.50;;
24335;SDS011;33098;52.400;16.880;2022-07-30T09:13:48;2.50;;;2.30;;
24335;SDS011;33098;52.400;16.880;2022-07-30T09:16:23;4.60;;;2.50;;
24335;SDS011;33098;52.400;16.880;2022-07-30T09:18:53;3.30;;;2.10;;
24335;SDS011;33098;52.400;16.880;2022-07-30T09:21:21;4.60;;;2.30;;
24335;SDS011;33098;52.400;16.880;2022-07-30T09:24:16;3.60;;;2.10;;
24335;SDS011;33098;52.400;16.880;2022-07-30T09:26:53;4.00;;;1.80;;
24335;SDS011;33098;52.400;16.880;2022-07-30T09:29:36;2.70;;;1.60;;
24335;SDS011;33098;52.400;16.880;2022-07-30T09:32:21;5.70;;;1.70;;
24335;SDS011;33098;52.400;16.880;2022-07-30T09:35:17;2.90;;;1.50;;
24335;SDS011;33098;52.400;16.880;2022-07-30T09:38:03;4.70;;;1.20;;
24335;SDS011;33098;52.400;16.880;2022-07-30T09:40:54;3.00;;;1.40;;
24335;SDS011;33098;52.400;16.880;2022-07-30T09:43:50;8.00;;;1.20;;
24335;SDS011;33098;52.400;16.880;2022-07-30T09:46:45;3.70;;;1.30;;
24335;SDS011;33098;52.400;16.880;2022-07-30T09:49:24;3.80;;;1.40;;
24335;SDS011;33098;52.400;16.880;2022-07-30T09:51:52;3.60;;;1.30;;
24335;SDS011;33098;52.400;16.880;2022-07-30T09:54:20;6.30;;;1.20;;
24335;SDS011;33098;52.400;16.880;2022-07-30T09:56:47;2.60;;;1.30;;
24335;SDS011;33098;52.400;16.880;2022-07-30T09:59:35;9.80;;;1.60;;
24335;SDS011;33098;52.400;16.880;2022-07-30T10:02:03;2.50;;;1.10;;
24335;SDS011;33098;52.400;16.880;2022-07-30T10:05:09;4.00;;;1.50;;
24335;SDS011;33098;52.400;16.880;2022-07-30T10:07:38;2.80;;;1.20;;
24335;SDS011;33098;52.400;16.880;2022-07-30T10:10:05;3.40;;;1.40;;
24335;SDS011;33098;52.400;16.880;2022-07-30T10:12:33;2.10;;;1.20;;
24335;SDS011;33098;52.400;16.880;2022-07-30T10:15:01;3.20;;;1.40;;
24335;SDS011;33098;52.400;16.880;2022-07-30T10:17:29;2.00;;;1.20;;
24335;SDS011;33098;52.400;16.880;2022-07-30T10:20:10;2.90;;;1.60;;
24335;SDS011;33098;52.400;16.880;2022-07-30T10:23:01;2.50;;;1.50;;
24335;SDS011;33098;52.400;16.880;2022-07-30T10:25:34;4.30;;;1.30;;
24335;SDS011;33098;52.400;16.880;2022-07-30T10:28:22;3.40;;;1.40;;
24335;SDS011;33098;52.400;16.880;2022-07-30T10:30:50;2.40;;;1.30;;
24335;SDS011;33098;52.400;16.880;2022-07-30T10:33:22;4.70;;;1.20;;
24335;SDS011;33098;52.400;16.880;2022-07-30T10:35:49;1.90;;;1.30;;
24335;SDS011;33098;52.400;16.880;2022-07-30T10:38:17;6.10;;;1.30;;
24335;SDS011;33098;52.400;16.880;2022-07-30T10:40:49;2.80;;;1.10;;
24335;SDS011;33098;52.400;16.880;2022-07-30T10:43:32;2.10;;;1.10;;
24335;SDS011;33098;52.400;16.880;2022-07-30T10:49:12;9.60;;;1.40;;
24335;SDS011;33098;52.400;16.880;2022-07-30T10:51:41;3.10;;;1.10;;
24335;SDS011;33098;52.400;16.880;2022-07-30T11:02:26;1.60;;;0.90;;
24335;SDS011;33098;52.400;16.880;2022-07-30T11:07:42;8.40;;;1.20;;
24335;SDS011;33098;52.400;16.880;2022-07-30T11:13:01;5.10;;;0.90;;
24335;SDS011;33098;52.400;16.880;2022-07-30T11:18:23;5.50;;;1.20;;
24335;SDS011;33098;52.400;16.880;2022-07-30T11:21:34;3.60;;;1.20;;
24335;SDS011;33098;52.400;16.880;2022-07-30T11:23:49;4.10;;;1.00;;
24335;SDS011;33098;52.400;16.880;2022-07-30T11:29:04;2.80;;;1.00;;
24335;SDS011;33098;52.400;16.880;2022-07-30T11:31:32;2.60;;;0.90;;
24335;SDS011;33098;52.400;16.880;2022-07-30T11:34:23;6.10;;;1.90;;
24335;SDS011;33098;52.400;16.880;2022-07-30T11:42:28;3.10;;;1.00;;
24335;SDS011;33098;52.400;16.880;2022-07-30T11:47:44;3.20;;;0.90;;
24335;SDS011;33098;52.400;16.880;2022-07-30T11:50:16;4.80;;;1.10;;
24335;SDS011;33098;52.400;16.880;2022-07-30T11:52:50;3.40;;;1.00;;
24335;SDS011;33098;52.400;16.880;2022-07-30T11:55:22;5.20;;;1.00;;
24335;SDS011;33098;52.400;16.880;2022-07-30T11:58:03;3.90;;;1.20;;
24335;SDS011;33098;52.400;16.880;2022-07-30T12:00:40;6.60;;;1.10;;
24335;SDS011;33098;52.400;16.880;2022-07-30T12:05:40;3.50;;;1.40;;
24335;SDS011;33098;52.400;16.880;2022-07-30T12:08:08;3.20;;;1.30;;
24335;SDS011;33098;52.400;16.880;2022-07-30T12:10:36;1.80;;;1.30;;
24335;SDS011;33098;52.400;16.880;2022-07-30T12:13:08;3.30;;;1.30;;
24335;SDS011;33098;52.400;16.880;2022-07-30T12:15:44;5.70;;;1.20;;
24335;SDS011;33098;52.400;16.880;2022-07-30T12:18:12;7.20;;;1.40;;
24335;SDS011;33098;52.400;16.880;2022-07-30T12:20:44;3.90;;;1.60;;
24335;SDS011;33098;52.400;16.880;2022-07-30T12:23:19;4.70;;;1.70;;
24335;SDS011;33098;52.400;16.880;2022-07-30T12:25:45;5.30;;;1.50;;
24335;SDS011;33098;52.400;16.880;2022-07-30T12:28:18;4.70;;;1.40;;
24335;SDS011;33098;52.400;16.880;2022-07-30T12:30:45;2.90;;;1.60;;
24335;SDS011;33098;52.400;16.880;2022-07-30T12:33:12;4.00;;;1.90;;
24335;SDS011;33098;52.400;16.880;2022-07-30T12:35:43;2.00;;;1.60;;
24335;SDS011;33098;52.400;16.880;2022-07-30T12:38:11;4.40;;;1.70;;
24335;SDS011;33098;52.400;16.880;2022-07-30T12:43:42;4.00;;;1.90;;
24335;SDS011;33098;52.400;16.880;2022-07-30T12:48:55;4.80;;;1.90;;
24335;SDS011;33098;52.400;16.880;2022-07-30T12:51:24;3.10;;;1.70;;
24335;SDS011;33098;52.400;16.880;2022-07-30T12:53:55;4.50;;;1.90;;
24335;SDS011;33098;52.400;16.880;2022-07-30T12:56:24;5.50;;;1.90;;
24335;SDS011;33098;52.400;16.880;2022-07-30T12:58:54;3.70;;;1.90;;
24335;SDS011;33098;52.400;16.880;2022-07-30T13:01:38;3.60;;;1.70;;
24335;SDS011;33098;52.400;16.880;2022-07-30T13:04:05;3.20;;;1.90;;
24335;SDS011;33098;52.400;16.880;2022-07-30T13:06:32;3.30;;;1.60;;
24335;SDS011;33098;52.400;16.880;2022-07-30T13:08:59;5.10;;;2.00;;
24335;SDS011;33098;52.400;16.880;2022-07-30T13:11:36;6.40;;;2.40;;
24335;SDS011;33098;52.400;16.880;2022-07-30T13:14:04;3.00;;;2.10;;
24335;SDS011;33098;52.400;16.880;2022-07-30T13:16:32;3.90;;;2.30;;
24335;SDS011;33098;52.400;16.880;2022-07-30T13:19:01;5.70;;;2.30;;
24335;SDS011;33098;52.400;16.880;2022-07-30T13:21:29;3.10;;;1.80;;
24335;SDS011;33098;52.400;16.880;2022-07-30T13:23:56;3.40;;;2.10;;
24335;SDS011;33098;52.400;16.880;2022-07-30T13:26:22;4.70;;;2.10;;
24335;SDS011;33098;52.400;16.880;2022-07-30T13:28:49;4.70;;;2.50;;
24335;SDS011;33098;52.400;16.880;2022-07-30T13:31:15;6.00;;;2.50;;
24335;SDS011;33098;52.400;16.880;2022-07-30T13:33:43;5.30;;;2.70;;
24335;SDS011;33098;52.400;16.880;2022-07-30T13:36:09;3.90;;;1.90;;
24335;SDS011;33098;52.400;16.880;2022-07-30T13:38:36;3.20;;;2.30;;
24335;SDS011;33098;52.400;16.880;2022-07-30T13:41:03;5.50;;;2.20;;
24335;SDS011;33098;52.400;16.880;2022-07-30T13:43:30;2.60;;;1.80;;
24335;SDS011;33098;52.400;16.880;2022-07-30T13:45:56;2.40;;;2.00;;
24335;SDS011;33098;52.400;16.880;2022-07-30T13:48:23;3.90;;;1.70;;
24335;SDS011;33098;52.400;16.880;2022-07-30T13:50:49;4.50;;;2.10;;
24335;SDS011;33098;52.400;16.880;2022-07-30T13:53:16;5.00;;;2.20;;
24335;SDS011;33098;52.400;16.880;2022-07-30T13:55:42;5.20;;;2.30;;
24335;SDS011;33098;52.400;16.880;2022-07-30T13:58:11;4.10;;;1.80;;
24335;SDS011;33098;52.400;16.880;2022-07-30T14:00:38;4.70;;;2.00;;
24335;SDS011;33098;52.400;16.880;2022-07-30T14:03:09;3.50;;;2.00;;
24335;SDS011;33098;52.400;16.880;2022-07-30T14:05:36;4.30;;;1.70;;
24335;SDS011;33098;52.400;16.880;2022-07-30T14:08:04;3.70;;;1.80;;
24335;SDS011;33098;52.400;16.880;2022-07-30T14:10:36;7.70;;;2.80;;
24335;SDS011;33098;52.400;16.880;2022-07-30T14:13:04;7.10;;;2.60;;
24335;SDS011;33098;52.400;16.880;2022-07-30T14:15:32;4.30;;;2.30;;
24335;SDS011;33098;52.400;16.880;2022-07-30T14:17:59;4.80;;;2.00;;
24335;SDS011;33098;52.400;16.880;2022-07-30T14:20:26;5.00;;;2.10;;
24335;SDS011;33098;52.400;16.880;2022-07-30T14:22:53;3.50;;;1.90;;
24335;SDS011;33098;52.400;16.880;2022-07-30T14:25:20;3.80;;;2.10;;
24335;SDS011;33098;52.400;16.880;2022-07-30T14:27:48;5.50;;;1.80;;
24335;SDS011;33098;52.400;16.880;2022-07-30T14:30:14;3.90;;;1.80;;
24335;SDS011;33098;52.400;16.880;2022-07-30T14:32:41;3.70;;;1.70;;
24335;SDS011;33098;52.400;16.880;2022-07-30T14:35:07;2.30;;;1.70;;
24335;SDS011;33098;52.400;16.880;2022-07-30T14:37:35;3.20;;;1.80;;
24335;SDS011;33098;52.400;16.880;2022-07-30T14:40:06;3.20;;;1.90;;
24335;SDS011;33098;52.400;16.880;2022-07-30T14:42:36;2.90;;;2.00;;
24335;SDS011;33098;52.400;16.880;2022-07-30T14:45:05;3.60;;;1.80;;
24335;SDS011;33098;52.400;16.880;2022-07-30T14:47:33;2.70;;;1.90;;
24335;SDS011;33098;52.400;16.880;2022-07-30T14:50:02;2.90;;;1.40;;
24335;SDS011;33098;52.400;16.880;2022-07-30T14:52:29;3.20;;;1.70;;
24335;SDS011;33098;52.400;16.880;2022-07-30T14:54:56;3.80;;;1.80;;
24335;SDS011;33098;52.400;16.880;2022-07-30T14:57:22;4.70;;;1.70;;
24335;SDS011;33098;52.400;16.880;2022-07-30T14:59:49;3.20;;;1.80;;
24335;SDS011;33098;52.400;16.880;2022-07-30T15:02:16;2.50;;;1.70;;
24335;SDS011;33098;52.400;16.880;2022-07-30T15:04:42;4.60;;;2.20;;
24335;SDS011;33098;52.400;16.880;2022-07-30T15:07:08;3.60;;;1.90;;
24335;SDS011;33098;52.400;16.880;2022-07-30T15:09:38;3.10;;;1.80;;
24335;SDS011;33098;52.400;16.880;2022-07-30T15:12:04;2.40;;;1.70;;
24335;SDS011;33098;52.400;16.880;2022-07-30T15:14:32;3.60;;;1.70;;
24335;SDS011;33098;52.400;16.880;2022-07-30T15:16:59;3.10;;;1.80;;
24335;SDS011;33098;52.400;16.880;2022-07-30T15:19:25;2.30;;;1.70;;
24335;SDS011;33098;52.400;16.880;2022-07-30T15:21:52;4.20;;;1.70;;
24335;SDS011;33098;52.400;16.880;2022-07-30T15:24:19;1.60;;;1.50;;
24335;SDS011;33098;52.400;16.880;2022-07-30T15:26:45;1.70;;;1.50;;
24335;SDS011;33098;52.400;16.880;2022-07-30T15:29:12;3.60;;;1.70;;
24335;SDS011;33098;52.400;16.880;2022-07-30T15:31:39;2.40;;;1.80;;
24335;SDS011;33098;52.400;16.880;2022-07-30T15:34:06;3.10;;;1.80;;
24335;SDS011;33098;52.400;16.880;2022-07-30T15:36:36;2.80;;;1.90;;
24335;SDS011;33098;52.400;16.880;2022-07-30T15:39:04;2.00;;;1.40;;
24335;SDS011;33098;52.400;16.880;2022-07-30T15:41:31;3.30;;;1.70;;
24335;SDS011;33098;52.400;16.880;2022-07-30T15:43:58;2.90;;;1.40;;
24335;SDS011;33098;52.400;16.880;2022-07-30T15:46:25;3.10;;;1.60;;
24335;SDS011;33098;52.400;16.880;2022-07-30T15:48:51;3.40;;;1.50;;
24335;SDS011;33098;52.400;16.880;2022-07-30T15:51:18;2.20;;;1.40;;